Time;durP1;ratioP1;P1;durP2;ratioP2;P2;SDS_P1;SDS_P2;PMS_P1;PMS_P2;Temp;Humidity;BMP_temperature;BMP_pressure;BME280_temperature;BME280_humidity;BME280_pressure;Samples;Min_cycle;Max_cycle;Signal;HPM_P1;HPM_P2
2023/12/18 00:00:33;;;;;;;15.20;11.80;;;;;;;12.54;46.65;103005.28;110594;1266;22420;-54
2023/12/18 00:03:00;;;;;;;13.00;11.40;;;;;;;12.55;46.74;103003.38;110586;1266;23177;-54
2023/12/18 00:05:27;;;;;;;15.90;12.00;;;;;;;12.56;46.60;103006.69;110469;1266;22309;-54
2023/12/18 00:07:54;;;;;;;14.20;11.60;;;;;;;12.57;46.61;103003.73;110601;1266;22412;-54
2023/12/18 00:10:21;;;;;;;14.00;11.40;;;;;;;12.58;46.54;103000.08;110640;1266;22124;-54
2023/12/18 00:12:48;;;;;;;14.10;10.90;;;;;;;12.59;46.50;103002.35;109825;1267;1002504;-54
2023/12/18 00:15:15;;;;;;;14.90;12.00;;;;;;;12.59;46.45;103007.39;110614;1266;22243;-54
2023/12/18 00:17:42;;;;;;;13.40;11.40;;;;;;;12.60;46.44;103010.19;110559;1274;22279;-54
2023/12/18 00:20:10;;;;;;;14.30;11.70;;;;;;;12.61;46.45;103014.02;110595;1274;22283;-54
2023/12/18 00:22:37;;;;;;;12.20;10.90;;;;;;;12.62;46.46;103018.39;110572;1266;22367;-54
2023/12/18 00:25:04;;;;;;;15.10;11.40;;;;;;;12.63;46.51;103022.91;110591;1274;22196;-54
2023/12/18 00:27:31;;;;;;;14.40;11.20;;;;;;;12.64;46.39;103022.75;110610;1266;22747;-54
2023/12/18 00:29:58;;;;;;;14.40;11.10;;;;;;;12.65;46.39;103026.92;110599;1267;22416;-54
2023/12/18 00:32:25;;;;;;;14.20;12.00;;;;;;;12.67;46.29;103024.17;110622;1274;23036;-54
2023/12/18 00:34:52;;;;;;;12.30;10.50;;;;;;;12.68;46.32;103019.46;110490;1269;22482;-54
2023/12/18 00:37:19;;;;;;;14.40;10.00;;;;;;;12.69;46.30;103020.17;110609;1266;23083;-54
2023/12/18 00:39:46;;;;;;;11.30;9.90;;;;;;;12.70;46.20;103014.95;110661;1254;22112;-54
2023/12/18 00:42:12;;;;;;;11.50;9.70;;;;;;;12.70;46.17;103012.34;109869;1250;1003046;-54
2023/12/18 00:44:39;;;;;;;11.00;9.70;;;;;;;12.72;46.15;103012.69;110657;1257;22827;-53
2023/12/18 00:47:06;;;;;;;11.40;9.30;;;;;;;12.71;46.10;103008.34;110619;1251;22291;-54
2023/12/18 00:49:33;;;;;;;12.00;9.50;;;;;;;12.73;46.03;103001.21;110656;1260;22210;-54
2023/12/18 00:52:00;;;;;;;11.20;9.10;;;;;;;12.73;45.90;102997.38;110645;1255;22129;-54
2023/12/18 00:54:27;;;;;;;9.80;8.80;;;;;;;12.72;45.74;102995.11;110626;1255;22295;-54
2023/12/18 00:56:54;;;;;;;13.60;10.50;;;;;;;12.72;45.75;102992.66;110651;1256;22176;-54
2023/12/18 00:59:21;;;;;;;13.50;9.90;;;;;;;12.71;45.79;102983.09;110595;1263;22129;-53
2023/12/18 01:01:48;;;;;;;11.00;9.50;;;;;;;12.70;45.73;102982.90;110636;1254;22277;-53
2023/12/18 01:04:15;;;;;;;12.40;10.40;;;;;;;12.69;45.75;102981.17;110459;1254;22608;-54
2023/12/18 01:06:42;;;;;;;12.00;9.90;;;;;;;12.66;45.67;102978.01;109899;1256;1003053;-54
2023/12/18 01:09:09;;;;;;;11.20;9.60;;;;;;;12.64;45.66;102982.70;110660;1250;22374;-54
2023/12/18 01:11:36;;;;;;;11.20;10.00;;;;;;;12.62;45.66;102980.95;110431;1259;22916;-54
2023/12/18 01:14:03;;;;;;;11.70;10.00;;;;;;;12.59;45.63;102976.75;110617;1256;22261;-53
2023/12/18 01:16:30;;;;;;;12.40;10.00;;;;;;;12.57;45.62;102975.01;110612;1255;22961;-53
2023/12/18 01:18:57;;;;;;;11.30;9.50;;;;;;;12.54;45.66;102977.78;110607;1254;22323;-53
2023/12/18 01:21:24;;;;;;;12.40;9.70;;;;;;;12.52;45.67;102971.67;110650;1251;23006;-53
2023/12/18 01:23:51;;;;;;;11.20;9.60;;;;;;;12.52;45.62;102965.40;110570;1256;22475;-53
2023/12/18 01:26:18;;;;;;;10.80;9.70;;;;;;;12.52;45.69;102955.30;110655;1251;22155;-54
2023/12/18 01:28:44;;;;;;;10.90;9.60;;;;;;;12.52;45.71;102953.39;109932;1250;1002977;-53
2023/12/18 01:31:22;;;;;;;11.80;9.90;;;;;;;12.54;45.65;102940.34;110653;1251;22279;-54
2023/12/18 01:33:49;;;;;;;12.40;10.40;;;;;;;12.54;45.54;102935.30;110651;1251;23027;-53
2023/12/18 01:36:16;;;;;;;11.90;10.40;;;;;;;12.55;45.47;102929.73;110653;1260;22510;-54
2023/12/18 01:38:42;;;;;;;11.80;10.10;;;;;;;12.55;45.48;102915.97;110615;1253;22534;-53
2023/12/18 01:41:09;;;;;;;12.20;9.80;;;;;;;12.55;45.49;102905.70;110600;1257;22309;-54
2023/12/18 01:43:36;;;;;;;11.90;9.80;;;;;;;12.55;45.42;102894.39;109678;1259;1002607;-54
2023/12/18 01:46:03;;;;;;;11.80;9.80;;;;;;;12.57;45.27;102885.17;110424;1266;23130;-54
2023/12/18 01:48:30;;;;;;;11.90;9.20;;;;;;;12.57;45.12;102886.90;110671;1260;22327;-54
2023/12/18 01:50:57;;;;;;;12.00;9.60;;;;;;;12.57;45.18;102884.46;110611;1254;22458;-54
2023/12/18 01:53:26;;;;;;;12.20;9.60;;;;;;;12.57;45.13;102887.08;110536;1254;22176;-54
2023/12/18 01:55:52;;;;;;;12.60;10.70;;;;;;;12.57;45.12;102898.91;109980;1266;1002109;-54
2023/12/18 01:58:19;;;;;;;11.60;9.70;;;;;;;12.55;45.22;102904.48;109693;1260;1002769;-54
2023/12/18 02:00:46;;;;;;;12.80;10.10;;;;;;;12.52;45.28;102904.64;109743;1253;1002973;-54
2023/12/18 02:03:15;;;;;;;14.50;10.50;;;;;;;12.48;45.33;102905.33;110626;1251;22480;-54
2023/12/18 02:05:42;;;;;;;12.00;9.60;;;;;;;12.45;45.36;102897.83;110628;1250;22365;-54
2023/12/18 02:08:08;;;;;;;13.50;10.60;;;;;;;12.43;45.48;102905.30;110593;1251;22276;-54
2023/12/18 02:10:35;;;;;;;12.10;9.40;;;;;;;12.41;45.56;102913.46;110675;1254;22251;-54
2023/12/18 02:13:02;;;;;;;11.50;9.90;;;;;;;12.39;45.54;102914.15;109758;1256;1002641;-54
2023/12/18 02:15:29;;;;;;;12.80;10.00;;;;;;;12.37;45.59;102911.53;110639;1254;23147;-54
2023/12/18 02:17:57;;;;;;;11.30;10.00;;;;;;;12.35;45.57;102902.82;110596;1256;22349;-54
2023/12/18 02:20:23;;;;;;;11.80;9.60;;;;;;;12.34;45.60;102902.31;110614;1254;22346;-54
2023/12/18 02:22:51;;;;;;;12.00;9.70;;;;;;;12.33;45.66;102902.30;110619;1251;22276;-54
2023/12/18 02:25:18;;;;;;;13.40;10.20;;;;;;;12.32;45.67;102901.25;110271;1261;22141;-54
2023/12/18 02:27:45;;;;;;;12.20;10.30;;;;;;;12.32;45.70;102901.77;110470;1256;22306;-54
2023/12/18 02:30:19;;;;;;;11.80;9.60;;;;;;;12.33;45.68;102901.77;110674;1250;22300;-54
2023/12/18 02:32:46;;;;;;;11.80;9.70;;;;;;;12.34;45.67;102901.95;109858;1255;1002363;-54
2023/12/18 02:35:13;;;;;;;11.00;9.50;;;;;;;12.34;45.61;102901.95;110664;1254;22355;-54
2023/12/18 02:37:40;;;;;;;10.50;9.30;;;;;;;12.35;45.51;102901.77;110609;1263;22186;-54
2023/12/18 02:40:07;;;;;;;11.80;8.90;;;;;;;12.36;45.58;102900.04;110628;1263;22181;-54
2023/12/18 02:42:34;;;;;;;11.20;9.00;;;;;;;12.36;45.72;102899.00;110475;1257;22432;-53
2023/12/18 02:45:02;;;;;;;11.10;9.40;;;;;;;12.37;45.86;102903.88;109834;1260;1002176;-54
2023/12/18 02:47:29;;;;;;;11.50;9.30;;;;;;;12.39;46.05;102897.44;110610;1254;22518;-54
2023/12/18 02:49:56;;;;;;;10.20;8.90;;;;;;;12.39;46.14;102892.92;110647;1254;23012;-54
2023/12/18 02:52:22;;;;;;;10.60;9.10;;;;;;;12.39;46.23;102884.55;110408;1267;22449;-54
2023/12/18 02:54:49;;;;;;;11.10;9.30;;;;;;;12.41;46.33;102876.91;110665;1255;23103;-54
2023/12/18 02:57:16;;;;;;;13.50;9.00;;;;;;;12.40;46.27;102880.92;110461;1258;22362;-54
2023/12/18 02:59:43;;;;;;;9.50;8.20;;;;;;;12.40;46.40;102883.02;110678;1262;22388;-54
2023/12/18 03:02:10;;;;;;;11.20;9.60;;;;;;;12.40;46.43;102880.40;110584;1254;22372;-53
2023/12/18 03:04:40;;;;;;;10.30;8.80;;;;;;;12.40;46.39;102876.05;110599;1263;22419;-53
2023/12/18 03:07:08;;;;;;;11.30;9.10;;;;;;;12.38;46.33;102867.86;110650;1254;22394;-54
2023/12/18 03:09:35;;;;;;;9.80;8.60;;;;;;;12.38;46.35;102859.52;110628;1251;22259;-54
2023/12/18 03:12:02;;;;;;;9.80;8.70;;;;;;;12.38;46.28;102852.20;110549;1263;22151;-53
2023/12/18 03:14:29;;;;;;;13.40;9.20;;;;;;;12.36;46.32;102847.66;109814;1257;1003086;-53
2023/12/18 03:16:56;;;;;;;10.30;8.90;;;;;;;12.35;46.27;102851.83;110498;1257;23297;-53
2023/12/18 03:19:23;;;;;;;10.30;9.20;;;;;;;12.34;46.44;102851.65;110623;1255;22266;-53
2023/12/18 03:21:50;;;;;;;11.50;9.20;;;;;;;12.35;46.44;102846.08;110626;1254;22374;-53
2023/12/18 03:24:17;;;;;;;10.00;8.30;;;;;;;12.36;46.44;102843.83;109871;1260;1002275;-54
2023/12/18 03:26:43;;;;;;;11.50;8.70;;;;;;;12.36;46.49;102846.45;109870;1254;1002186;-53
2023/12/18 03:29:10;;;;;;;10.70;8.30;;;;;;;12.37;46.48;102850.09;110468;1266;22316;-53
2023/12/18 03:31:37;;;;;;;10.30;8.60;;;;;;;12.37;46.49;102854.97;110579;1256;22484;-54
2023/12/18 03:34:04;;;;;;;9.70;8.60;;;;;;;12.38;46.47;102857.06;109858;1263;1002151;-54
2023/12/18 03:36:31;;;;;;;9.30;8.10;;;;;;;12.39;46.48;102857.59;110467;1266;22286;-54
2023/12/18 03:38:58;;;;;;;10.20;8.20;;;;;;;12.40;46.49;102856.90;110604;1260;22437;-54
2023/12/18 03:41:24;;;;;;;9.50;8.00;;;;;;;12.41;46.46;102854.81;110599;1254;22139;-54
2023/12/18 03:43:51;;;;;;;10.10;8.60;;;;;;;12.42;46.48;102856.38;110689;1254;22427;-54
2023/12/18 03:46:18;;;;;;;10.20;8.00;;;;;;;12.43;46.48;102850.30;110508;1259;22465;-54
2023/12/18 03:48:45;;;;;;;9.40;7.90;;;;;;;12.44;46.44;102847.50;109838;1256;1002853;-54
2023/12/18 03:51:12;;;;;;;9.20;7.60;;;;;;;12.45;46.46;102849.27;110672;1260;22163;-54
2023/12/18 03:53:39;;;;;;;10.30;8.40;;;;;;;12.47;46.46;102847.52;110614;1253;22096;-54
2023/12/18 03:56:06;;;;;;;9.50;8.00;;;;;;;12.48;46.58;102842.65;110599;1258;22202;-54
2023/12/18 03:58:32;;;;;;;11.30;8.00;;;;;;;12.49;46.59;102845.27;110667;1257;22900;-54
2023/12/18 04:01:00;;;;;;;11.00;8.00;;;;;;;12.51;46.54;102839.88;110673;1255;22112;-54
2023/12/18 04:03:27;;;;;;;10.20;8.10;;;;;;;12.52;46.54;102845.27;110635;1251;22137;-54
2023/12/18 04:05:55;;;;;;;8.90;7.70;;;;;;;12.53;46.55;102842.14;110710;1254;22836;-54
2023/12/18 04:08:22;;;;;;;11.00;7.60;;;;;;;12.54;46.57;102839.38;110679;1251;22288;-53
2023/12/18 04:10:49;;;;;;;10.30;8.40;;;;;;;12.54;46.46;102835.70;110618;1255;22412;-54
2023/12/18 04:13:16;;;;;;;8.90;7.90;;;;;;;12.55;46.54;102834.67;110563;1266;22115;-54
2023/12/18 04:15:43;;;;;;;9.00;8.10;;;;;;;12.55;46.44;102829.09;109831;1260;1002277;-54
2023/12/18 04:18:09;;;;;;;10.00;8.00;;;;;;;12.53;46.42;102822.82;110631;1260;22119;-54
2023/12/18 04:20:37;;;;;;;9.20;8.10;;;;;;;12.52;46.44;102820.21;110603;1268;22262;-54
2023/12/18 04:23:03;;;;;;;9.70;8.60;;;;;;;12.50;46.46;102812.37;110738;1265;22384;-54
2023/12/18 04:25:30;;;;;;;12.20;9.30;;;;;;;12.50;46.64;102810.80;110632;1263;22374;-54
2023/12/18 04:27:57;;;;;;;12.40;8.90;;;;;;;12.52;46.66;102809.77;110636;1256;22208;-54
2023/12/18 04:30:24;;;;;;;10.80;8.60;;;;;;;12.53;46.65;102813.08;110731;1254;22389;-53
2023/12/18 04:32:51;;;;;;;10.60;7.90;;;;;;;12.55;46.56;102815.86;110660;1255;23133;-54
2023/12/18 04:35:18;;;;;;;9.00;7.90;;;;;;;12.56;46.56;102806.99;110670;1255;22433;-54
2023/12/18 04:37:45;;;;;;;10.90;8.50;;;;;;;12.57;46.38;102801.77;110532;1274;22470;-53
2023/12/18 04:40:12;;;;;;;9.70;8.20;;;;;;;12.56;46.36;102801.59;110649;1256;22162;-54
2023/12/18 04:42:39;;;;;;;10.30;8.10;;;;;;;12.55;46.39;102789.58;110597;1263;22205;-53
2023/12/18 04:45:07;;;;;;;10.80;8.40;;;;;;;12.54;46.28;102783.83;110618;1250;22774;-54
2023/12/18 04:47:34;;;;;;;8.90;8.00;;;;;;;12.54;46.23;102778.95;110430;1266;22258;-53
2023/12/18 04:50:01;;;;;;;9.90;7.90;;;;;;;12.53;46.13;102784.34;110634;1255;22895;-53
2023/12/18 04:52:28;;;;;;;8.70;7.80;;;;;;;12.51;46.07;102785.39;110542;1263;22926;-53
2023/12/18 04:54:55;;;;;;;9.90;8.20;;;;;;;12.51;46.08;102783.81;110614;1263;22289;-53
2023/12/18 04:57:22;;;;;;;9.60;8.20;;;;;;;12.49;46.00;102780.33;110676;1263;22142;-53
2023/12/18 04:59:48;;;;;;;10.80;8.60;;;;;;;12.51;45.91;102786.45;109856;1263;1002943;-54
2023/12/18 05:02:15;;;;;;;10.30;8.20;;;;;;;12.50;45.83;102782.95;110665;1263;22276;-53
2023/12/18 05:04:42;;;;;;;9.30;7.70;;;;;;;12.51;45.85;102783.64;110442;1259;22131;-53
2023/12/18 05:07:11;;;;;;;10.60;8.40;;;;;;;12.52;45.78;102780.34;110646;1251;22917;-53
2023/12/18 05:09:39;;;;;;;8.30;7.30;;;;;;;12.52;45.82;102777.39;110628;1255;22173;-54
2023/12/18 05:12:06;;;;;;;11.10;7.80;;;;;;;12.52;45.78;102785.22;110585;1255;22182;-53
2023/12/18 05:14:33;;;;;;;8.50;7.20;;;;;;;12.53;45.82;102792.36;110636;1255;23042;-53
2023/12/18 05:16:59;;;;;;;8.00;7.20;;;;;;;12.54;45.84;102792.71;110660;1257;22159;-53
2023/12/18 05:19:26;;;;;;;9.20;7.70;;;;;;;12.55;45.64;102790.27;110423;1258;22142;-53
2023/12/18 05:21:53;;;;;;;12.50;8.50;;;;;;;12.53;45.61;102789.91;109660;1259;1002788;-53
2023/12/18 05:24:20;;;;;;;9.50;8.00;;;;;;;12.50;45.48;102782.77;110640;1255;22116;-53
2023/12/18 05:26:47;;;;;;;8.90;6.90;;;;;;;12.47;45.49;102792.52;110674;1253;23018;-53
2023/12/18 05:29:14;;;;;;;10.00;8.00;;;;;;;12.44;45.65;102790.94;110663;1263;22113;-53
2023/12/18 05:31:40;;;;;;;11.80;8.40;;;;;;;12.40;45.74;102789.53;110603;1263;22129;-53
2023/12/18 05:34:07;;;;;;;9.60;7.70;;;;;;;12.37;45.81;102787.27;110436;1258;22306;-53
2023/12/18 05:36:34;;;;;;;10.00;7.50;;;;;;;12.34;45.94;102787.95;110658;1254;22387;-53
2023/12/18 05:39:01;;;;;;;8.50;7.50;;;;;;;12.32;45.97;102792.65;110604;1256;22816;-53
2023/12/18 05:41:28;;;;;;;9.30;7.80;;;;;;;12.30;45.91;102793.16;109866;1255;1002797;-53
2023/12/18 05:43:55;;;;;;;8.70;7.30;;;;;;;12.28;45.95;102796.12;109873;1255;1002389;-53
2023/12/18 05:46:22;;;;;;;11.80;8.50;;;;;;;12.26;45.91;102793.49;109874;1254;1002790;-53
2023/12/18 05:48:49;;;;;;;9.80;8.40;;;;;;;12.24;45.88;102791.92;110539;1274;22521;-54
2023/12/18 05:51:20;;;;;;;10.90;8.10;;;;;;;12.24;45.87;102791.92;110451;1266;22144;-54
2023/12/18 05:53:47;;;;;;;11.00;8.10;;;;;;;12.24;45.84;102795.59;110622;1260;22287;-54
2023/12/18 05:56:14;;;;;;;12.80;7.70;;;;;;;12.23;45.85;102792.10;110650;1254;22414;-54
2023/12/18 05:58:41;;;;;;;8.60;7.70;;;;;;;12.20;45.77;102785.99;110459;1258;22488;-54
2023/12/18 06:01:08;;;;;;;9.60;7.90;;;;;;;12.20;45.83;102778.33;110403;1259;22120;-54
2023/12/18 06:03:35;;;;;;;12.20;9.60;;;;;;;12.20;45.84;102764.23;110388;1259;22178;-53
2023/12/18 06:06:02;;;;;;;15.30;11.40;;;;;;;12.20;45.82;102757.61;110519;1257;22147;-54
2023/12/18 06:08:29;;;;;;;21.20;15.80;;;;;;;12.22;45.89;102768.58;109783;1254;1002278;-54
2023/12/18 06:10:56;;;;;;;22.80;18.50;;;;;;;12.24;45.88;102775.21;109846;1254;1002323;-54
2023/12/18 06:13:22;;;;;;;86.00;64.80;;;;;;;12.26;45.80;102770.19;110649;1254;22866;-54
2023/12/18 06:15:49;;;;;;;37.70;29.60;;;;;;;12.23;45.81;102772.77;110573;1254;22808;-54
2023/12/18 06:18:16;;;;;;;150.20;90.10;;;;;;;12.25;45.75;102765.48;110251;1267;22908;-54
2023/12/18 06:20:43;;;;;;;195.20;124.40;;;;;;;12.24;45.73;102761.64;109835;1256;1002860;-54
2023/12/18 06:23:10;;;;;;;79.70;57.30;;;;;;;12.22;45.66;102754.15;109866;1266;1002515;-54
2023/12/18 06:25:37;;;;;;;29.90;23.30;;;;;;;12.21;45.65;102748.59;110617;1254;22161;-54
2023/12/18 06:28:04;;;;;;;17.50;14.20;;;;;;;12.20;45.60;102748.22;110646;1254;23095;-54
2023/12/18 06:30:31;;;;;;;12.10;10.30;;;;;;;12.18;45.64;102744.40;109844;1263;1003025;-54
2023/12/18 06:32:58;;;;;;;11.30;9.60;;;;;;;12.17;45.65;102751.88;110632;1256;22148;-54
2023/12/18 06:35:25;;;;;;;11.70;9.40;;;;;;;12.16;45.57;102753.79;110597;1263;22299;-54
2023/12/18 06:37:51;;;;;;;10.30;8.70;;;;;;;12.15;45.65;102757.08;109856;1256;1002340;-53
2023/12/18 06:40:18;;;;;;;11.10;8.90;;;;;;;12.13;45.56;102755.52;109706;1259;1002249;-54
2023/12/18 06:42:45;;;;;;;12.30;9.10;;;;;;;12.10;45.53;102748.54;109853;1256;1002833;-54
2023/12/18 06:45:12;;;;;;;10.00;8.60;;;;;;;12.07;45.55;102756.02;110633;1261;22231;-54
2023/12/18 06:47:39;;;;;;;13.00;9.30;;;;;;;12.04;45.60;102755.31;110630;1266;22286;-53
2023/12/18 06:50:06;;;;;;;11.10;8.30;;;;;;;12.02;45.66;102746.59;109840;1257;1007529;-54
2023/12/18 06:52:33;;;;;;;11.20;9.10;;;;;;;12.01;45.66;102751.46;110652;1253;22475;-54
2023/12/18 06:55:00;;;;;;;11.10;8.40;;;;;;;12.02;45.63;102759.13;110647;1254;22147;-54
2023/12/18 06:57:26;;;;;;;9.80;8.60;;;;;;;12.03;45.76;102762.95;110592;1273;22353;-53
2023/12/18 06:59:54;;;;;;;9.80;8.60;;;;;;;12.05;45.76;102757.23;110612;1254;22180;-53
2023/12/18 07:02:20;;;;;;;10.90;8.80;;;;;;;12.07;45.76;102752.02;110638;1256;22976;-54
2023/12/18 07:04:47;;;;;;;11.50;9.00;;;;;;;12.08;45.74;102752.19;110649;1254;22194;-53
2023/12/18 07:07:14;;;;;;;11.90;9.00;;;;;;;12.10;45.69;102758.28;109816;1256;1002661;-54
2023/12/18 07:09:41;;;;;;;12.90;9.60;;;;;;;12.11;45.66;102748.20;110667;1254;22653;-54
2023/12/18 07:12:08;;;;;;;10.60;9.20;;;;;;;12.13;45.59;102752.55;109868;1256;1002788;-53
2023/12/18 07:14:38;;;;;;;12.80;11.20;;;;;;;12.16;45.53;102743.17;110607;1257;22612;-53
2023/12/18 07:17:04;;;;;;;13.30;11.60;;;;;;;12.19;45.42;102737.09;110423;1259;23035;-54
2023/12/18 07:19:31;;;;;;;13.00;10.60;;;;;;;12.21;45.38;102738.14;109768;1259;1003031;-54
2023/12/18 07:21:58;;;;;;;12.90;9.60;;;;;;;12.23;45.18;102734.33;109826;1257;1002570;-53
2023/12/18 07:24:25;;;;;;;11.60;9.80;;;;;;;12.26;45.27;102730.85;110650;1263;22486;-53
2023/12/18 07:26:52;;;;;;;12.70;9.50;;;;;;;12.28;45.11;102734.69;110611;1256;22106;-53
2023/12/18 07:29:18;;;;;;;11.60;9.20;;;;;;;12.30;45.02;102730.34;110583;1257;22325;-54
2023/12/18 07:31:45;;;;;;;11.10;9.20;;;;;;;12.29;44.99;102722.15;110333;1259;22892;-54
2023/12/18 07:34:12;;;;;;;12.10;9.50;;;;;;;12.31;44.93;102726.17;110494;1257;22132;-54
2023/12/18 07:36:40;;;;;;;10.80;8.70;;;;;;;12.32;44.96;102729.14;110614;1256;22306;-54
2023/12/18 07:39:07;;;;;;;10.80;9.30;;;;;;;12.34;45.08;102736.27;110591;1257;22440;-54
2023/12/18 07:41:34;;;;;;;11.50;8.80;;;;;;;12.37;45.05;102742.37;109837;1257;1002370;-54
2023/12/18 07:44:01;;;;;;;10.40;8.50;;;;;;;12.37;45.11;102740.27;110637;1251;22343;-54
2023/12/18 07:46:27;;;;;;;11.10;8.80;;;;;;;12.44;45.04;102734.71;110572;1256;23040;-54
2023/12/18 07:48:54;;;;;;;10.80;8.90;;;;;;;12.49;45.04;102742.38;110626;1251;22863;-54
2023/12/18 07:51:21;;;;;;;10.10;8.70;;;;;;;12.54;44.96;102748.13;109697;1266;1002759;-54
2023/12/18 07:53:48;;;;;;;12.10;8.80;;;;;;;12.57;44.82;102740.15;110474;1258;22458;-54
2023/12/18 07:56:15;;;;;;;10.00;8.90;;;;;;;12.57;44.93;102733.16;110546;1260;22185;-54
2023/12/18 07:58:42;;;;;;;12.20;9.40;;;;;;;12.64;44.93;102729.34;110557;1256;23019;-54
2023/12/18 08:01:09;;;;;;;11.30;9.00;;;;;;;12.69;44.73;102725.01;110587;1257;22717;-54
2023/12/18 08:03:36;;;;;;;11.50;8.70;;;;;;;12.72;44.64;102719.62;110432;1260;22290;-54
2023/12/18 08:06:03;;;;;;;11.30;8.60;;;;;;;12.74;44.58;102712.29;110628;1257;22240;-54
2023/12/18 08:08:30;;;;;;;12.10;9.50;;;;;;;12.76;44.57;102703.42;109827;1257;1002617;-54
2023/12/18 08:10:56;;;;;;;11.10;9.50;;;;;;;12.78;44.51;102694.53;110651;1257;22977;-55
2023/12/18 08:13:23;;;;;;;11.00;9.10;;;;;;;12.79;44.38;102695.40;110623;1255;22123;-54
2023/12/18 08:15:50;;;;;;;10.80;8.30;;;;;;;12.79;44.35;102697.16;110623;1255;23041;-54
2023/12/18 08:18:17;;;;;;;12.10;9.60;;;;;;;12.81;44.43;102703.59;109671;1259;1002794;-54
2023/12/18 08:20:44;;;;;;;10.60;8.60;;;;;;;12.82;44.38;102707.08;110593;1266;22362;-54
2023/12/18 08:23:11;;;;;;;11.50;8.70;;;;;;;12.84;44.35;102709.51;110431;1272;23102;-54
2023/12/18 08:25:38;;;;;;;10.70;8.60;;;;;;;12.86;44.44;102693.50;110605;1267;22342;-54
2023/12/18 08:28:05;;;;;;;12.20;9.80;;;;;;;12.89;44.39;102682.69;110591;1273;22296;-54
2023/12/18 08:30:32;;;;;;;11.50;9.00;;;;;;;12.94;44.42;102677.27;110594;1274;23143;-54
2023/12/18 08:33:00;;;;;;;13.50;9.30;;;;;;;12.99;44.39;102668.40;110600;1261;22273;-54
2023/12/18 08:35:27;;;;;;;11.50;9.40;;;;;;;13.05;44.24;102679.02;109838;1255;1002265;-54
2023/12/18 08:37:54;;;;;;;11.70;9.60;;;;;;;13.09;44.14;102671.02;110647;1263;22411;-54
2023/12/18 08:40:21;;;;;;;11.00;8.90;;;;;;;13.14;44.16;102670.49;110381;1266;22183;-53
2023/12/18 08:42:48;;;;;;;10.30;8.80;;;;;;;13.19;44.17;102666.30;110567;1272;22165;-53
2023/12/18 08:45:15;;;;;;;11.20;9.40;;;;;;;13.24;43.95;102662.98;110566;1266;22441;-53
2023/12/18 08:47:42;;;;;;;12.80;9.20;;;;;;;13.27;43.92;102658.09;110656;1257;22505;-53
2023/12/18 08:50:09;;;;;;;9.70;8.50;;;;;;;13.28;43.88;102653.55;109821;1263;1002654;-54
2023/12/18 08:52:36;;;;;;;10.20;8.50;;;;;;;13.29;43.74;102652.85;110451;1260;22340;-53
2023/12/18 08:55:04;;;;;;;10.00;8.90;;;;;;;13.29;43.78;102645.71;110434;1273;22325;-54
2023/12/18 08:57:30;;;;;;;11.60;9.60;;;;;;;13.29;43.73;102646.39;110584;1263;22140;-53
2023/12/18 08:59:57;;;;;;;10.20;8.70;;;;;;;13.31;43.89;102644.30;110583;1267;22176;-54
2023/12/18 09:02:24;;;;;;;9.70;8.50;;;;;;;13.34;43.90;102636.63;110434;1257;22376;-54
2023/12/18 09:04:51;;;;;;;11.10;9.30;;;;;;;13.37;44.06;102640.45;109797;1270;1002366;-53
2023/12/18 09:07:18;;;;;;;9.90;8.90;;;;;;;13.42;44.05;102637.98;110596;1267;22391;-53
2023/12/18 09:09:45;;;;;;;11.50;8.90;;;;;;;13.48;43.99;102629.60;110577;1273;22274;-53
2023/12/18 09:12:12;;;;;;;9.50;8.20;;;;;;;13.55;43.92;102632.55;110593;1257;22477;-54
2023/12/18 09:14:39;;;;;;;11.20;9.40;;;;;;;13.62;43.70;102631.29;110586;1263;23081;-54
2023/12/18 09:17:06;;;;;;;10.40;9.10;;;;;;;13.68;43.52;102631.25;110505;1266;22434;-54
2023/12/18 09:19:33;;;;;;;11.70;9.80;;;;;;;13.74;43.51;102627.21;110629;1271;23115;-54
2023/12/18 09:22:00;;;;;;;12.60;9.30;;;;;;;13.79;43.45;102630.67;110656;1266;22325;-54
2023/12/18 09:24:28;;;;;;;13.00;9.20;;;;;;;13.83;43.39;102633.27;110649;1256;22392;-54
2023/12/18 09:26:55;;;;;;;11.20;9.30;;;;;;;13.85;43.41;102637.27;110139;1263;22880;-55
2023/12/18 09:29:22;;;;;;;10.60;9.30;;;;;;;13.88;43.42;102637.25;109698;1265;1002385;-54
2023/12/18 09:31:50;;;;;;;10.60;9.40;;;;;;;13.90;43.50;102635.67;110588;1272;23028;-54
2023/12/18 09:34:16;;;;;;;11.30;9.20;;;;;;;13.93;43.50;102631.13;110684;1257;22284;-54
2023/12/18 09:36:44;;;;;;;11.40;9.10;;;;;;;13.96;43.54;102628.84;110483;1260;22449;-54
2023/12/18 09:39:11;;;;;;;11.40;9.30;;;;;;;14.01;43.52;102627.41;110468;1273;22106;-54
2023/12/18 09:41:37;;;;;;;10.20;8.70;;;;;;;14.05;43.61;102628.42;110404;1274;22862;-54
2023/12/18 09:44:04;;;;;;;13.00;10.10;;;;;;;14.10;43.62;102625.95;110586;1274;22377;-54
2023/12/18 09:46:31;;;;;;;10.80;8.90;;;;;;;14.14;43.66;102624.02;110523;1260;22311;-54
2023/12/18 09:48:58;;;;;;;10.20;8.70;;;;;;;14.19;43.57;102619.27;110279;1267;22836;-54
2023/12/18 09:51:25;;;;;;;11.20;9.00;;;;;;;14.23;43.56;102607.02;110606;1269;22589;-54
2023/12/18 09:53:53;;;;;;;11.70;8.80;;;;;;;14.29;43.42;102600.17;110605;1257;22869;-54
2023/12/18 09:56:21;;;;;;;11.80;8.90;;;;;;;14.32;43.18;102598.95;110622;1270;22358;-54
2023/12/18 09:58:48;;;;;;;10.10;8.50;;;;;;;14.35;43.20;102589.48;109842;1263;1002840;-54
2023/12/18 10:01:15;;;;;;;11.90;9.30;;;;;;;14.37;43.35;102589.31;110577;1266;22373;-54
2023/12/18 10:03:42;;;;;;;14.80;8.70;;;;;;;14.39;43.41;102583.01;109823;1270;1002137;-54
2023/12/18 10:06:09;;;;;;;11.00;8.20;;;;;;;14.42;43.26;102575.29;110581;1269;22284;-54
2023/12/18 10:08:36;;;;;;;12.00;8.50;;;;;;;14.45;43.19;102570.91;110651;1257;22894;-54
2023/12/18 10:11:03;;;;;;;10.80;9.10;;;;;;;14.47;43.10;102567.20;110316;1262;22960;-54
2023/12/18 10:13:30;;;;;;;9.30;8.40;;;;;;;14.51;43.22;102563.34;110663;1257;23067;-54
2023/12/18 10:15:58;;;;;;;11.20;9.60;;;;;;;14.56;43.26;102556.83;110569;1267;22314;-54
2023/12/18 10:18:25;;;;;;;9.70;8.70;;;;;;;14.62;43.15;102558.52;109915;1261;1002413;-54
2023/12/18 10:20:52;;;;;;;9.20;8.30;;;;;;;14.68;42.95;102561.58;110653;1257;22291;-54
2023/12/18 10:23:19;;;;;;;8.50;7.50;;;;;;;14.73;42.72;102561.73;110651;1267;22190;-54
2023/12/18 10:25:46;;;;;;;9.90;7.40;;;;;;;14.77;42.73;102560.63;110615;1267;22874;-54
2023/12/18 10:28:13;;;;;;;9.00;7.50;;;;;;;14.80;42.71;102549.77;110393;1274;22345;-54
2023/12/18 10:30:40;;;;;;;8.60;7.60;;;;;;;14.83;42.64;102553.41;110577;1260;22253;-54
2023/12/18 10:33:09;;;;;;;8.60;7.60;;;;;;;14.86;42.71;102547.10;110423;1274;22112;-54
2023/12/18 10:35:36;;;;;;;9.30;7.60;;;;;;;14.89;42.64;102544.44;110699;1251;22361;-54
2023/12/18 10:38:03;;;;;;;9.40;7.80;;;;;;;14.90;42.70;102538.14;110580;1257;22279;-54
2023/12/18 10:40:30;;;;;;;10.40;7.20;;;;;;;14.92;42.81;102540.54;110664;1257;22916;-54
2023/12/18 10:43:00;;;;;;;10.00;7.30;;;;;;;14.95;42.72;102535.80;110441;1274;22595;-54
2023/12/18 10:45:27;;;;;;;8.60;7.60;;;;;;;14.98;42.78;102533.66;110585;1275;22653;-54
2023/12/18 10:47:54;;;;;;;8.90;7.90;;;;;;;15.00;42.86;102526.30;110579;1267;22268;-54
2023/12/18 10:50:21;;;;;;;9.30;7.50;;;;;;;15.06;43.12;102522.90;110541;1270;23211;-54
2023/12/18 10:52:48;;;;;;;8.70;7.80;;;;;;;15.12;43.10;102525.27;110416;1265;22313;-54
2023/12/18 10:55:16;;;;;;;9.70;8.00;;;;;;;15.17;42.98;102523.29;110460;1274;22205;-55
2023/12/18 10:57:43;;;;;;;10.00;7.90;;;;;;;15.20;42.85;102517.30;110623;1267;22102;-54
2023/12/18 11:00:14;;;;;;;10.40;8.10;;;;;;;15.22;42.90;102509.93;110352;1257;22371;-54
2023/12/18 11:02:41;;;;;;;9.60;8.20;;;;;;;15.25;42.90;102507.98;110365;1274;22968;-53
2023/12/18 11:05:08;;;;;;;8.80;7.90;;;;;;;15.27;42.94;102503.92;110580;1270;22192;-54